Aérodrome :
LOGIN :

S'inscrire | Disclaimer

   EN    FR    IT 

 










Légende :    VFR   VFR Marginal   IFR   IFR Intensif   IFR Très Intensif
Visi : 
Plafond : 
>= 8 km
>= 3000ft
5 à 8 km
1000 à 3000 ft
1500m à 5 km
500 à 1000 ft
800 à 1500m
200 à 500 ft
< 800m
< 200 ft
Symboles :   Orages  Brouillard  Fortes neiges  Fortes précipitations  Vent > 20 kt
SIGMETs :   Divers  Orages  Givrage  Turbulence  Onde Orograph.  Cendres Volcan.







- Altitude de l'aérodrome : 219 ft
- Code IATA : DNR
- Voir les cartes d'approche


LFRD - Dinard

DERNIER METAR :
  • 232200Z AUTO 05008KT 9000 OVC012 14/11 Q1020 BECMG BKN008

METARs EXPIRÉS :
  • 232130Z AUTO 05009KT 020V080 8000 OVC012 14/11 Q1020 BECMG BKN008
  • 232100Z AUTO 05007KT 7000 FEW013 OVC088 13/11 Q1020 BECMG BKN008
  • 232030Z AUTO 04008KT 7000 NSC 13/11 Q1020 BECMG BKN008
  • 232000Z AUTO 04010KT 8000 NSC 13/11 Q1020 BECMG BKN008
  • 231930Z AUTO 04011KT 010V070 8000 FEW016 SCT100 14/11 Q1019 TEMPO BKN015

TAF TAF LFRD
Valide du 23 à 18h jusqu'au 24 à 18h UTC


231700Z 2318/2418 02012KT 9999 FEW020
TEMPO 2320/2322 BKN015
BECMG 2322/2324 03004KT BKN008
PROB40
TEMPO 2401/2406 4000 BR BKN003
BECMG 2410/2412 SCT015
BECMG 2411/2413 33010KT
ATIS : +33 2 99 16 81 50
Pas de NOTAMs connus pour ce terrain.



MET'MAP, la Météo Aéronautique d'un coup d'oeil ! - Copyright ORBIFLY Décembre 2007 - Disclaimer

ORBIFLY MET'MAP TEAM :

Programmation & Développement : Alexandra Zaïnal
Conception & Développement : Baudouin d'Aumeries
Co-Programmation & Développement : Marc-Olivier Méhu
Soutien technique & logistique : Manuel Goepfert

Contact : metmap@orbifly.com




SOURCES & CREDITS :

   NOAA